sensor_id;sensor_type;location;lat;lon;timestamp;temperature;humidity
8231;DHT22;4156;50.908;6.974;2023-03-12T00:00:50;4.60;99.90
8231;DHT22;4156;50.908;6.974;2023-03-12T00:03:16;4.60;99.90
8231;DHT22;4156;50.908;6.974;2023-03-12T00:05:43;4.60;99.90
8231;DHT22;4156;50.908;6.974;2023-03-12T00:08:09;4.50;99.90
8231;DHT22;4156;50.908;6.974;2023-03-12T00:10:36;4.50;99.90
8231;DHT22;4156;50.908;6.974;2023-03-12T00:13:02;4.50;99.90
8231;DHT22;4156;50.908;6.974;2023-03-12T00:15:28;4.50;99.90
8231;DHT22;4156;50.908;6.974;2023-03-12T00:17:53;4.50;99.90
8231;DHT22;4156;50.908;6.974;2023-03-12T00:20:19;4.50;99.90
8231;DHT22;4156;50.908;6.974;2023-03-12T00:22:46;4.50;99.90
8231;DHT22;4156;50.908;6.974;2023-03-12T00:25:13;4.50;99.90
8231;DHT22;4156;50.908;6.974;2023-03-12T00:27:40;4.50;99.90
8231;DHT22;4156;50.908;6.974;2023-03-12T00:30:06;4.50;99.90
8231;DHT22;4156;50.908;6.974;2023-03-12T00:32:32;4.50;99.90
8231;DHT22;4156;50.908;6.974;2023-03-12T00:34:58;4.50;99.90
8231;DHT22;4156;50.908;6.974;2023-03-12T00:37:23;4.50;99.90
8231;DHT22;4156;50.908;6.974;2023-03-12T00:39:49;4.50;99.90
8231;DHT22;4156;50.908;6.974;2023-03-12T00:42:15;4.50;99.90
8231;DHT22;4156;50.908;6.974;2023-03-12T00:44:40;4.50;99.90
8231;DHT22;4156;50.908;6.974;2023-03-12T00:47:06;4.40;99.90
8231;DHT22;4156;50.908;6.974;2023-03-12T00:49:31;4.40;99.90
8231;DHT22;4156;50.908;6.974;2023-03-12T00:51:57;4.30;99.90
8231;DHT22;4156;50.908;6.974;2023-03-12T00:54:22;4.30;99.90
8231;DHT22;4156;50.908;6.974;2023-03-12T00:56:49;4.30;99.90
8231;DHT22;4156;50.908;6.974;2023-03-12T00:59:15;4.30;99.90
8231;DHT22;4156;50.908;6.974;2023-03-12T01:01:41;4.30;99.90
8231;DHT22;4156;50.908;6.974;2023-03-12T01:04:06;4.20;99.90
8231;DHT22;4156;50.908;6.974;2023-03-12T01:06:32;4.20;99.90
8231;DHT22;4156;50.908;6.974;2023-03-12T01:08:57;4.20;99.90
8231;DHT22;4156;50.908;6.974;2023-03-12T01:11:24;4.20;99.90
8231;DHT22;4156;50.908;6.974;2023-03-12T01:13:50;4.20;99.90
8231;DHT22;4156;50.908;6.974;2023-03-12T01:16:15;4.20;99.90
8231;DHT22;4156;50.908;6.974;2023-03-12T01:18:41;4.20;99.90
8231;DHT22;4156;50.908;6.974;2023-03-12T01:21:06;4.20;99.90
8231;DHT22;4156;50.908;6.974;2023-03-12T01:23:32;4.20;99.90
8231;DHT22;4156;50.908;6.974;2023-03-12T01:25:57;4.20;99.90
8231;DHT22;4156;50.908;6.974;2023-03-12T01:28:24;4.20;99.90
8231;DHT22;4156;50.908;6.974;2023-03-12T01:30:50;4.10;99.90
8231;DHT22;4156;50.908;6.974;2023-03-12T01:33:16;4.10;99.90
8231;DHT22;4156;50.908;6.974;2023-03-12T01:35:42;4.10;99.90
8231;DHT22;4156;50.908;6.974;2023-03-12T01:38:12;4.10;99.90
8231;DHT22;4156;50.908;6.974;2023-03-12T01:40:38;4.10;99.90
8231;DHT22;4156;50.908;6.974;2023-03-12T01:43:26;4.10;99.90
8231;DHT22;4156;50.908;6.974;2023-03-12T01:48:58;4.00;99.90
8231;DHT22;4156;50.908;6.974;2023-03-12T01:51:32;4.00;99.90
8231;DHT22;4156;50.908;6.974;2023-03-12T01:54:02;4.00;99.90
8231;DHT22;4156;50.908;6.974;2023-03-12T01:56:32;4.00;99.90
8231;DHT22;4156;50.908;6.974;2023-03-12T01:59:02;4.00;99.90
8231;DHT22;4156;50.908;6.974;2023-03-12T02:01:29;4.00;99.90
8231;DHT22;4156;50.908;6.974;2023-03-12T02:03:55;4.10;99.90
8231;DHT22;4156;50.908;6.974;2023-03-12T02:06:33;4.10;99.90
8231;DHT22;4156;50.908;6.974;2023-03-12T02:09:02;4.10;99.90
8231;DHT22;4156;50.908;6.974;2023-03-12T02:11:29;4.20;99.90
8231;DHT22;4156;50.908;6.974;2023-03-12T02:13:54;4.20;99.90
8231;DHT22;4156;50.908;6.974;2023-03-12T02:16:20;4.10;99.90
8231;DHT22;4156;50.908;6.974;2023-03-12T02:18:47;4.10;99.90
8231;DHT22;4156;50.908;6.974;2023-03-12T02:21:24;4.20;99.90
8231;DHT22;4156;50.908;6.974;2023-03-12T02:23:54;4.10;99.90
8231;DHT22;4156;50.908;6.974;2023-03-12T02:26:20;4.10;99.90
8231;DHT22;4156;50.908;6.974;2023-03-12T02:28:48;4.10;99.90
8231;DHT22;4156;50.908;6.974;2023-03-12T02:31:20;4.10;99.90
8231;DHT22;4156;50.908;6.974;2023-03-12T02:33:46;4.10;99.90
8231;DHT22;4156;50.908;6.974;2023-03-12T02:36:12;4.10;99.90
8231;DHT22;4156;50.908;6.974;2023-03-12T02:43:35;4.10;99.90
8231;DHT22;4156;50.908;6.974;2023-03-12T02:46:01;4.00;99.90
8231;DHT22;4156;50.908;6.974;2023-03-12T02:48:27;4.00;99.90
8231;DHT22;4156;50.908;6.974;2023-03-12T02:50:52;4.10;99.90
8231;DHT22;4156;50.908;6.974;2023-03-12T02:53:18;4.10;99.90
8231;DHT22;4156;50.908;6.974;2023-03-12T02:55:43;4.10;99.90
8231;DHT22;4156;50.908;6.974;2023-03-12T02:58:09;4.10;99.90
8231;DHT22;4156;50.908;6.974;2023-03-12T03:00:34;4.00;99.90
8231;DHT22;4156;50.908;6.974;2023-03-12T03:03:01;4.00;99.90
8231;DHT22;4156;50.908;6.974;2023-03-12T03:05:26;4.00;99.90
8231;DHT22;4156;50.908;6.974;2023-03-12T03:07:52;4.00;99.90
8231;DHT22;4156;50.908;6.974;2023-03-12T03:10:17;4.10;99.90
8231;DHT22;4156;50.908;6.974;2023-03-12T03:12:43;4.10;99.90
8231;DHT22;4156;50.908;6.974;2023-03-12T03:15:09;4.10;99.90
8231;DHT22;4156;50.908;6.974;2023-03-12T03:17:35;4.10;99.90
8231;DHT22;4156;50.908;6.974;2023-03-12T03:20:01;4.10;99.90
8231;DHT22;4156;50.908;6.974;2023-03-12T03:22:28;4.10;99.90
8231;DHT22;4156;50.908;6.974;2023-03-12T03:24:54;4.10;99.90
8231;DHT22;4156;50.908;6.974;2023-03-12T03:27:19;4.10;99.90
8231;DHT22;4156;50.908;6.974;2023-03-12T03:29:45;4.10;99.90
8231;DHT22;4156;50.908;6.974;2023-03-12T03:32:11;4.20;99.90
8231;DHT22;4156;50.908;6.974;2023-03-12T03:34:38;4.20;99.90
8231;DHT22;4156;50.908;6.974;2023-03-12T03:37:04;4.10;99.90
8231;DHT22;4156;50.908;6.974;2023-03-12T03:39:29;4.10;99.90
8231;DHT22;4156;50.908;6.974;2023-03-12T03:41:55;4.10;99.90
8231;DHT22;4156;50.908;6.974;2023-03-12T03:44:21;4.00;99.90
8231;DHT22;4156;50.908;6.974;2023-03-12T03:46:47;4.00;99.90
8231;DHT22;4156;50.908;6.974;2023-03-12T03:49:13;4.00;99.90
8231;DHT22;4156;50.908;6.974;2023-03-12T03:51:39;4.00;99.90
8231;DHT22;4156;50.908;6.974;2023-03-12T03:54:07;4.00;99.90
8231;DHT22;4156;50.908;6.974;2023-03-12T03:56:33;4.10;99.90
8231;DHT22;4156;50.908;6.974;2023-03-12T03:58:58;4.10;99.90
8231;DHT22;4156;50.908;6.974;2023-03-12T04:01:26;4.10;99.90
8231;DHT22;4156;50.908;6.974;2023-03-12T04:03:52;4.10;99.90
8231;DHT22;4156;50.908;6.974;2023-03-12T04:06:17;4.20;99.90
8231;DHT22;4156;50.908;6.974;2023-03-12T04:08:43;4.20;99.90
8231;DHT22;4156;50.908;6.974;2023-03-12T04:11:14;4.20;99.90
8231;DHT22;4156;50.908;6.974;2023-03-12T04:13:40;4.20;99.90
8231;DHT22;4156;50.908;6.974;2023-03-12T04:16:06;4.20;99.90
8231;DHT22;4156;50.908;6.974;2023-03-12T04:18:33;4.20;99.90
8231;DHT22;4156;50.908;6.974;2023-03-12T04:21:00;4.20;99.90
8231;DHT22;4156;50.908;6.974;2023-03-12T04:23:26;4.10;99.90
8231;DHT22;4156;50.908;6.974;2023-03-12T04:25:51;4.10;99.90
8231;DHT22;4156;50.908;6.974;2023-03-12T04:28:17;4.10;99.90
8231;DHT22;4156;50.908;6.974;2023-03-12T04:30:42;4.10;99.90
8231;DHT22;4156;50.908;6.974;2023-03-12T04:33:08;4.10;99.90
8231;DHT22;4156;50.908;6.974;2023-03-12T04:35:33;4.10;99.90
8231;DHT22;4156;50.908;6.974;2023-03-12T04:38:02;4.10;99.90
8231;DHT22;4156;50.908;6.974;2023-03-12T04:40:28;4.10;99.90
8231;DHT22;4156;50.908;6.974;2023-03-12T04:42:54;4.10;99.90
8231;DHT22;4156;50.908;6.974;2023-03-12T04:45:19;4.10;99.90
8231;DHT22;4156;50.908;6.974;2023-03-12T04:47:45;4.10;99.90
8231;DHT22;4156;50.908;6.974;2023-03-12T04:50:11;4.10;99.90
8231;DHT22;4156;50.908;6.974;2023-03-12T04:52:37;4.10;99.90
8231;DHT22;4156;50.908;6.974;2023-03-12T04:55:03;4.10;99.90
8231;DHT22;4156;50.908;6.974;2023-03-12T04:57:29;4.00;99.90
8231;DHT22;4156;50.908;6.974;2023-03-12T04:59:54;4.00;99.90
8231;DHT22;4156;50.908;6.974;2023-03-12T05:02:20;4.00;99.90
8231;DHT22;4156;50.908;6.974;2023-03-12T05:04:45;4.00;99.90
8231;DHT22;4156;50.908;6.974;2023-03-12T05:07:11;4.00;99.90
8231;DHT22;4156;50.908;6.974;2023-03-12T05:09:36;4.00;99.90
8231;DHT22;4156;50.908;6.974;2023-03-12T05:12:02;4.00;99.90
8231;DHT22;4156;50.908;6.974;2023-03-12T05:14:28;3.90;99.90
8231;DHT22;4156;50.908;6.974;2023-03-12T05:16:53;3.90;99.90
8231;DHT22;4156;50.908;6.974;2023-03-12T05:19:19;3.90;99.90
8231;DHT22;4156;50.908;6.974;2023-03-12T05:21:44;3.90;99.90
8231;DHT22;4156;50.908;6.974;2023-03-12T05:24:10;3.90;99.90
8231;DHT22;4156;50.908;6.974;2023-03-12T05:26:36;3.90;99.90
8231;DHT22;4156;50.908;6.974;2023-03-12T05:29:03;3.80;99.90
8231;DHT22;4156;50.908;6.974;2023-03-12T05:31:29;3.80;99.90
8231;DHT22;4156;50.908;6.974;2023-03-12T05:33:57;3.70;99.90
8231;DHT22;4156;50.908;6.974;2023-03-12T05:36:23;3.70;99.90
8231;DHT22;4156;50.908;6.974;2023-03-12T05:38:49;3.70;99.90
8231;DHT22;4156;50.908;6.974;2023-03-12T05:41:20;3.60;99.90
8231;DHT22;4156;50.908;6.974;2023-03-12T05:43:46;3.60;99.90
8231;DHT22;4156;50.908;6.974;2023-03-12T05:46:13;3.60;99.90
8231;DHT22;4156;50.908;6.974;2023-03-12T05:48:38;3.60;99.90
8231;DHT22;4156;50.908;6.974;2023-03-12T05:51:04;3.60;99.90
8231;DHT22;4156;50.908;6.974;2023-03-12T05:53:29;3.70;99.90
8231;DHT22;4156;50.908;6.974;2023-03-12T05:56:04;3.70;99.90
8231;DHT22;4156;50.908;6.974;2023-03-12T05:58:31;3.70;99.90
8231;DHT22;4156;50.908;6.974;2023-03-12T06:00:56;3.70;99.90
8231;DHT22;4156;50.908;6.974;2023-03-12T06:03:22;3.80;99.90
8231;DHT22;4156;50.908;6.974;2023-03-12T06:05:48;3.80;99.90
8231;DHT22;4156;50.908;6.974;2023-03-12T06:08:14;3.80;99.90
8231;DHT22;4156;50.908;6.974;2023-03-12T06:10:40;3.80;99.90
8231;DHT22;4156;50.908;6.974;2023-03-12T06:13:06;3.80;99.90
8231;DHT22;4156;50.908;6.974;2023-03-12T06:15:31;3.80;99.90
8231;DHT22;4156;50.908;6.974;2023-03-12T06:17:57;3.80;99.90
8231;DHT22;4156;50.908;6.974;2023-03-12T06:20:22;3.80;99.90
8231;DHT22;4156;50.908;6.974;2023-03-12T06:22:48;3.70;99.90
8231;DHT22;4156;50.908;6.974;2023-03-12T06:25:13;3.70;99.90
8231;DHT22;4156;50.908;6.974;2023-03-12T06:27:39;3.70;99.90
8231;DHT22;4156;50.908;6.974;2023-03-12T06:30:06;3.70;99.90
8231;DHT22;4156;50.908;6.974;2023-03-12T06:32:32;3.70;99.90
8231;DHT22;4156;50.908;6.974;2023-03-12T06:34:58;3.70;99.90
8231;DHT22;4156;50.908;6.974;2023-03-12T06:37:25;3.70;99.90
8231;DHT22;4156;50.908;6.974;2023-03-12T06:39:51;3.70;99.90
8231;DHT22;4156;50.908;6.974;2023-03-12T06:42:16;3.80;99.90
8231;DHT22;4156;50.908;6.974;2023-03-12T06:44:44;3.80;99.90
8231;DHT22;4156;50.908;6.974;2023-03-12T06:47:09;3.80;99.90
8231;DHT22;4156;50.908;6.974;2023-03-12T06:49:35;3.70;99.90
8231;DHT22;4156;50.908;6.974;2023-03-12T06:52:02;3.80;99.90
8231;DHT22;4156;50.908;6.974;2023-03-12T06:54:27;3.80;99.90
8231;DHT22;4156;50.908;6.974;2023-03-12T06:56:53;3.80;99.90
8231;DHT22;4156;50.908;6.974;2023-03-12T06:59:18;3.70;99.90
8231;DHT22;4156;50.908;6.974;2023-03-12T07:01:46;3.70;99.90
8231;DHT22;4156;50.908;6.974;2023-03-12T07:04:11;3.70;99.90
8231;DHT22;4156;50.908;6.974;2023-03-12T07:06:37;3.70;99.90
8231;DHT22;4156;50.908;6.974;2023-03-12T07:09:04;3.70;99.90
8231;DHT22;4156;50.908;6.974;2023-03-12T07:11:29;3.70;99.90
8231;DHT22;4156;50.908;6.974;2023-03-12T07:13:55;3.70;99.90
8231;DHT22;4156;50.908;6.974;2023-03-12T07:16:21;3.70;99.90
8231;DHT22;4156;50.908;6.974;2023-03-12T07:18:47;3.80;99.90
8231;DHT22;4156;50.908;6.974;2023-03-12T07:21:13;3.80;99.90
8231;DHT22;4156;50.908;6.974;2023-03-12T07:23:40;3.80;99.90
8231;DHT22;4156;50.908;6.974;2023-03-12T07:26:06;3.80;99.90
8231;DHT22;4156;50.908;6.974;2023-03-12T07:28:32;3.80;99.90
8231;DHT22;4156;50.908;6.974;2023-03-12T07:31:02;3.80;99.90
8231;DHT22;4156;50.908;6.974;2023-03-12T07:33:28;3.80;99.90
8231;DHT22;4156;50.908;6.974;2023-03-12T07:35:54;3.90;99.90
8231;DHT22;4156;50.908;6.974;2023-03-12T07:38:20;3.90;99.90
8231;DHT22;4156;50.908;6.974;2023-03-12T07:40:53;3.90;99.90
8231;DHT22;4156;50.908;6.974;2023-03-12T07:43:18;4.00;99.90
8231;DHT22;4156;50.908;6.974;2023-03-12T07:45:44;4.00;99.90
8231;DHT22;4156;50.908;6.974;2023-03-12T07:48:10;3.90;99.90
8231;DHT22;4156;50.908;6.974;2023-03-12T07:50:36;4.00;99.90
8231;DHT22;4156;50.908;6.974;2023-03-12T07:53:03;4.00;99.90
8231;DHT22;4156;50.908;6.974;2023-03-12T07:55:30;4.00;99.90
8231;DHT22;4156;50.908;6.974;2023-03-12T07:57:55;4.00;99.90
8231;DHT22;4156;50.908;6.974;2023-03-12T08:00:24;4.00;99.90
8231;DHT22;4156;50.908;6.974;2023-03-12T08:02:49;4.00;99.90
8231;DHT22;4156;50.908;6.974;2023-03-12T08:05:15;4.10;99.90
8231;DHT22;4156;50.908;6.974;2023-03-12T08:07:40;4.10;99.90
8231;DHT22;4156;50.908;6.974;2023-03-12T08:10:07;4.10;99.90
8231;DHT22;4156;50.908;6.974;2023-03-12T08:12:33;4.10;99.90
8231;DHT22;4156;50.908;6.974;2023-03-12T08:14:59;4.10;99.90
8231;DHT22;4156;50.908;6.974;2023-03-12T08:17:25;4.10;99.90
8231;DHT22;4156;50.908;6.974;2023-03-12T08:19:50;4.10;99.90
8231;DHT22;4156;50.908;6.974;2023-03-12T08:22:16;4.10;99.90
8231;DHT22;4156;50.908;6.974;2023-03-12T08:24:42;4.10;99.90
8231;DHT22;4156;50.908;6.974;2023-03-12T08:27:08;4.10;99.90
8231;DHT22;4156;50.908;6.974;2023-03-12T08:29:33;4.10;99.90
8231;DHT22;4156;50.908;6.974;2023-03-12T08:31:59;4.10;99.90
8231;DHT22;4156;50.908;6.974;2023-03-12T08:34:25;4.10;99.90
8231;DHT22;4156;50.908;6.974;2023-03-12T08:36:50;4.10;99.90
8231;DHT22;4156;50.908;6.974;2023-03-12T08:39:16;4.10;99.90
8231;DHT22;4156;50.908;6.974;2023-03-12T08:41:41;4.10;99.90
8231;DHT22;4156;50.908;6.974;2023-03-12T08:44:07;4.10;99.90
8231;DHT22;4156;50.908;6.974;2023-03-12T08:46:33;4.10;99.90
8231;DHT22;4156;50.908;6.974;2023-03-12T08:48:59;4.10;99.90
8231;DHT22;4156;50.908;6.974;2023-03-12T08:51:24;4.20;99.90
8231;DHT22;4156;50.908;6.974;2023-03-12T08:53:50;4.20;99.90
8231;DHT22;4156;50.908;6.974;2023-03-12T08:56:16;4.20;99.90
8231;DHT22;4156;50.908;6.974;2023-03-12T08:58:41;4.20;99.90
8231;DHT22;4156;50.908;6.974;2023-03-12T09:01:09;4.30;99.90
8231;DHT22;4156;50.908;6.974;2023-03-12T09:03:34;4.30;99.90
8231;DHT22;4156;50.908;6.974;2023-03-12T09:06:04;4.30;99.90
8231;DHT22;4156;50.908;6.974;2023-03-12T09:08:30;4.30;99.90
8231;DHT22;4156;50.908;6.974;2023-03-12T09:10:58;4.30;99.90
8231;DHT22;4156;50.908;6.974;2023-03-12T09:13:25;4.30;99.90
8231;DHT22;4156;50.908;6.974;2023-03-12T09:15:51;4.40;99.90
8231;DHT22;4156;50.908;6.974;2023-03-12T09:18:16;4.40;99.90
8231;DHT22;4156;50.908;6.974;2023-03-12T09:20:44;4.40;99.90
8231;DHT22;4156;50.908;6.974;2023-03-12T09:23:10;4.40;99.90
8231;DHT22;4156;50.908;6.974;2023-03-12T09:25:35;4.50;99.90
8231;DHT22;4156;50.908;6.974;2023-03-12T09:28:01;4.50;99.90
8231;DHT22;4156;50.908;6.974;2023-03-12T09:30:26;4.50;99.90
8231;DHT22;4156;50.908;6.974;2023-03-12T09:32:54;4.50;99.90
8231;DHT22;4156;50.908;6.974;2023-03-12T09:35:20;4.50;99.90
8231;DHT22;4156;50.908;6.974;2023-03-12T09:37:48;4.70;99.90
8231;DHT22;4156;50.908;6.974;2023-03-12T09:40:17;4.60;99.90
8231;DHT22;4156;50.908;6.974;2023-03-12T09:42:52;4.70;99.90
8231;DHT22;4156;50.908;6.974;2023-03-12T09:45:22;4.60;99.90
8231;DHT22;4156;50.908;6.974;2023-03-12T09:47:54;4.60;99.90
8231;DHT22;4156;50.908;6.974;2023-03-12T09:50:29;4.60;99.90
8231;DHT22;4156;50.908;6.974;2023-03-12T09:55:39;4.70;99.90
8231;DHT22;4156;50.908;6.974;2023-03-12T09:58:33;4.70;99.90
8231;DHT22;4156;50.908;6.974;2023-03-12T10:01:13;4.70;99.90
8231;DHT22;4156;50.908;6.974;2023-03-12T10:04:06;4.70;99.90
8231;DHT22;4156;50.908;6.974;2023-03-12T10:07:06;4.70;99.90
8231;DHT22;4156;50.908;6.974;2023-03-12T10:15:53;4.80;99.90
8231;DHT22;4156;50.908;6.974;2023-03-12T10:21:45;4.80;99.90
8231;DHT22;4156;50.908;6.974;2023-03-12T10:24:42;4.80;99.90
8231;DHT22;4156;50.908;6.974;2023-03-12T10:27:14;4.90;99.90
8231;DHT22;4156;50.908;6.974;2023-03-12T10:29:43;4.90;99.90
8231;DHT22;4156;50.908;6.974;2023-03-12T10:34:55;5.00;99.90
8231;DHT22;4156;50.908;6.974;2023-03-12T10:37:25;4.90;99.90
8231;DHT22;4156;50.908;6.974;2023-03-12T10:39:54;5.00;99.90
8231;DHT22;4156;50.908;6.974;2023-03-12T10:42:22;5.10;99.90
8231;DHT22;4156;50.908;6.974;2023-03-12T10:45:37;5.10;99.90
8231;DHT22;4156;50.908;6.974;2023-03-12T10:47:39;5.10;99.90
8231;DHT22;4156;50.908;6.974;2023-03-12T10:50:16;5.10;99.90
8231;DHT22;4156;50.908;6.974;2023-03-12T10:52:45;5.10;99.90
8231;DHT22;4156;50.908;6.974;2023-03-12T10:55:24;5.10;99.90
8231;DHT22;4156;50.908;6.974;2023-03-12T10:57:51;5.10;99.90
8231;DHT22;4156;50.908;6.974;2023-03-12T11:00:22;5.10;99.90
8231;DHT22;4156;50.908;6.974;2023-03-12T11:05:36;5.20;99.90
8231;DHT22;4156;50.908;6.974;2023-03-12T11:08:23;5.20;99.90
8231;DHT22;4156;50.908;6.974;2023-03-12T11:10:51;5.30;99.90
8231;DHT22;4156;50.908;6.974;2023-03-12T11:13:27;5.20;99.90
8231;DHT22;4156;50.908;6.974;2023-03-12T11:15:55;5.20;99.90
8231;DHT22;4156;50.908;6.974;2023-03-12T11:18:28;5.30;99.90
8231;DHT22;4156;50.908;6.974;2023-03-12T11:21:12;5.30;99.90
8231;DHT22;4156;50.908;6.974;2023-03-12T11:23:44;5.30;99.90
8231;DHT22;4156;50.908;6.974;2023-03-12T11:26:20;5.30;99.90
8231;DHT22;4156;50.908;6.974;2023-03-12T11:28:49;5.40;99.90
8231;DHT22;4156;50.908;6.974;2023-03-12T11:31:22;5.40;99.90
8231;DHT22;4156;50.908;6.974;2023-03-12T11:33:50;5.40;99.90
8231;DHT22;4156;50.908;6.974;2023-03-12T11:39:16;5.50;99.90
8231;DHT22;4156;50.908;6.974;2023-03-12T11:47:18;5.50;99.90
8231;DHT22;4156;50.908;6.974;2023-03-12T11:50:33;5.50;99.90
8231;DHT22;4156;50.908;6.974;2023-03-12T11:56:08;5.60;99.90
8231;DHT22;4156;50.908;6.974;2023-03-12T12:12:55;5.70;99.90
8231;DHT22;4156;50.908;6.974;2023-03-12T12:15:32;5.80;99.90
8231;DHT22;4156;50.908;6.974;2023-03-12T12:26:08;6.10;99.90
8231;DHT22;4156;50.908;6.974;2023-03-12T12:29:19;6.10;99.90
8231;DHT22;4156;50.908;6.974;2023-03-12T12:31:55;6.30;99.90
8231;DHT22;4156;50.908;6.974;2023-03-12T12:37:36;6.40;99.90
8231;DHT22;4156;50.908;6.974;2023-03-12T12:40:16;6.50;99.90
8231;DHT22;4156;50.908;6.974;2023-03-12T12:43:03;6.50;99.90
8231;DHT22;4156;50.908;6.974;2023-03-12T12:45:29;6.60;99.90
8231;DHT22;4156;50.908;6.974;2023-03-12T12:48:40;6.60;99.90
8231;DHT22;4156;50.908;6.974;2023-03-12T12:51:08;6.70;99.90
8231;DHT22;4156;50.908;6.974;2023-03-12T12:56:30;6.70;99.90
8231;DHT22;4156;50.908;6.974;2023-03-12T12:59:16;6.70;99.90
8231;DHT22;4156;50.908;6.974;2023-03-12T13:01:50;6.70;99.90
8231;DHT22;4156;50.908;6.974;2023-03-12T13:04:35;6.80;99.90
8231;DHT22;4156;50.908;6.974;2023-03-12T13:09:41;6.80;99.90
8231;DHT22;4156;50.908;6.974;2023-03-12T13:12:30;6.80;99.90
8231;DHT22;4156;50.908;6.974;2023-03-12T13:14:58;6.90;99.90
8231;DHT22;4156;50.908;6.974;2023-03-12T13:20:18;6.90;99.90
8231;DHT22;4156;50.908;6.974;2023-03-12T13:23:20;7.00;99.90
8231;DHT22;4156;50.908;6.974;2023-03-12T13:26:49;7.00;99.90
8231;DHT22;4156;50.908;6.974;2023-03-12T13:33:56;7.10;99.90
8231;DHT22;4156;50.908;6.974;2023-03-12T13:36:24;7.10;99.90
8231;DHT22;4156;50.908;6.974;2023-03-12T13:38:59;7.20;99.90
8231;DHT22;4156;50.908;6.974;2023-03-12T13:41:38;7.20;99.90
8231;DHT22;4156;50.908;6.974;2023-03-12T13:46:57;7.30;99.90
8231;DHT22;4156;50.908;6.974;2023-03-12T13:49:24;7.30;99.90
8231;DHT22;4156;50.908;6.974;2023-03-12T13:54:41;7.40;99.90
8231;DHT22;4156;50.908;6.974;2023-03-12T13:57:27;7.40;99.90
8231;DHT22;4156;50.908;6.974;2023-03-12T13:59:54;7.50;99.90
8231;DHT22;4156;50.908;6.974;2023-03-12T14:02:27;7.50;99.90
8231;DHT22;4156;50.908;6.974;2023-03-12T14:05:01;7.50;99.90
8231;DHT22;4156;50.908;6.974;2023-03-12T14:07:42;7.50;99.90
8231;DHT22;4156;50.908;6.974;2023-03-12T14:10:27;7.50;99.90
8231;DHT22;4156;50.908;6.974;2023-03-12T14:13:06;7.60;99.90
8231;DHT22;4156;50.908;6.974;2023-03-12T14:18:27;7.60;99.90
8231;DHT22;4156;50.908;6.974;2023-03-12T14:20:59;7.60;99.90
8231;DHT22;4156;50.908;6.974;2023-03-12T14:23:31;7.60;99.90
8231;DHT22;4156;50.908;6.974;2023-03-12T14:26:00;7.70;99.90
8231;DHT22;4156;50.908;6.974;2023-03-12T14:28:26;7.70;99.90
8231;DHT22;4156;50.908;6.974;2023-03-12T14:33:30;7.70;99.90
8231;DHT22;4156;50.908;6.974;2023-03-12T14:36:05;7.80;99.90
8231;DHT22;4156;50.908;6.974;2023-03-12T14:38:36;7.80;99.90
8231;DHT22;4156;50.908;6.974;2023-03-12T14:41:11;7.80;99.90
8231;DHT22;4156;50.908;6.974;2023-03-12T14:43:41;7.90;99.90
8231;DHT22;4156;50.908;6.974;2023-03-12T14:46:33;7.90;99.90
8231;DHT22;4156;50.908;6.974;2023-03-12T14:48:58;7.90;99.90
8231;DHT22;4156;50.908;6.974;2023-03-12T14:51:29;7.90;99.90
8231;DHT22;4156;50.908;6.974;2023-03-12T14:54:01;8.00;99.90
8231;DHT22;4156;50.908;6.974;2023-03-12T14:56:30;8.00;99.90
8231;DHT22;4156;50.908;6.974;2023-03-12T14:59:00;8.00;99.90
8231;DHT22;4156;50.908;6.974;2023-03-12T15:01:29;8.00;99.90
8231;DHT22;4156;50.908;6.974;2023-03-12T15:04:03;8.10;99.90
8231;DHT22;4156;50.908;6.974;2023-03-12T15:06:33;8.10;99.90
8231;DHT22;4156;50.908;6.974;2023-03-12T15:09:01;8.10;99.90
8231;DHT22;4156;50.908;6.974;2023-03-12T15:11:29;8.10;99.90
8231;DHT22;4156;50.908;6.974;2023-03-12T15:14:01;8.10;99.90
8231;DHT22;4156;50.908;6.974;2023-03-12T15:16:27;8.20;99.90
8231;DHT22;4156;50.908;6.974;2023-03-12T15:18:53;8.20;99.90
8231;DHT22;4156;50.908;6.974;2023-03-12T15:21:19;8.20;99.90
8231;DHT22;4156;50.908;6.974;2023-03-12T15:23:46;8.20;99.90
8231;DHT22;4156;50.908;6.974;2023-03-12T15:26:14;8.20;99.90
8231;DHT22;4156;50.908;6.974;2023-03-12T15:28:40;8.20;99.90
8231;DHT22;4156;50.908;6.974;2023-03-12T15:31:12;8.20;99.90
8231;DHT22;4156;50.908;6.974;2023-03-12T15:33:40;8.30;99.90
8231;DHT22;4156;50.908;6.974;2023-03-12T15:36:23;8.30;99.90
8231;DHT22;4156;50.908;6.974;2023-03-12T15:39:02;8.40;99.90
8231;DHT22;4156;50.908;6.974;2023-03-12T15:41:42;8.40;99.90
8231;DHT22;4156;50.908;6.974;2023-03-12T15:44:26;8.00;99.90
8231;DHT22;4156;50.908;6.974;2023-03-12T15:46:55;8.50;99.90
8231;DHT22;4156;50.908;6.974;2023-03-12T15:49:32;8.50;99.90
8231;DHT22;4156;50.908;6.974;2023-03-12T15:52:06;8.50;99.90
8231;DHT22;4156;50.908;6.974;2023-03-12T15:54:39;8.50;99.90
8231;DHT22;4156;50.908;6.974;2023-03-12T15:57:23;8.50;99.90
8231;DHT22;4156;50.908;6.974;2023-03-12T16:00:06;8.60;99.90
8231;DHT22;4156;50.908;6.974;2023-03-12T16:02:35;8.60;99.90
8231;DHT22;4156;50.908;6.974;2023-03-12T16:05:01;8.70;99.90
8231;DHT22;4156;50.908;6.974;2023-03-12T16:07:27;8.70;99.90
8231;DHT22;4156;50.908;6.974;2023-03-12T16:09:52;8.70;99.90
8231;DHT22;4156;50.908;6.974;2023-03-12T16:12:18;8.80;99.90
8231;DHT22;4156;50.908;6.974;2023-03-12T16:14:43;8.80;99.90
8231;DHT22;4156;50.908;6.974;2023-03-12T16:17:13;8.80;99.90
8231;DHT22;4156;50.908;6.974;2023-03-12T16:19:38;8.90;99.90
8231;DHT22;4156;50.908;6.974;2023-03-12T16:22:04;8.90;99.90
8231;DHT22;4156;50.908;6.974;2023-03-12T16:24:29;8.90;99.90
8231;DHT22;4156;50.908;6.974;2023-03-12T16:26:58;8.90;99.90
8231;DHT22;4156;50.908;6.974;2023-03-12T16:29:35;8.90;99.90
8231;DHT22;4156;50.908;6.974;2023-03-12T16:32:01;8.90;99.90
8231;DHT22;4156;50.908;6.974;2023-03-12T16:34:28;9.00;99.90
8231;DHT22;4156;50.908;6.974;2023-03-12T16:36:53;9.00;99.90
8231;DHT22;4156;50.908;6.974;2023-03-12T16:39:19;9.00;99.90
8231;DHT22;4156;50.908;6.974;2023-03-12T16:41:45;9.00;99.90
8231;DHT22;4156;50.908;6.974;2023-03-12T16:44:18;9.00;99.90
8231;DHT22;4156;50.908;6.974;2023-03-12T16:46:44;9.00;99.90
8231;DHT22;4156;50.908;6.974;2023-03-12T16:49:15;9.00;99.90
8231;DHT22;4156;50.908;6.974;2023-03-12T16:51:41;9.00;99.90
8231;DHT22;4156;50.908;6.974;2023-03-12T16:54:07;9.00;99.90
8231;DHT22;4156;50.908;6.974;2023-03-12T16:56:34;9.00;99.90
8231;DHT22;4156;50.908;6.974;2023-03-12T16:59:03;9.00;99.90
8231;DHT22;4156;50.908;6.974;2023-03-12T17:01:29;9.00;99.90
8231;DHT22;4156;50.908;6.974;2023-03-12T17:03:56;9.00;99.90
8231;DHT22;4156;50.908;6.974;2023-03-12T17:06:23;9.10;99.90
8231;DHT22;4156;50.908;6.974;2023-03-12T17:08:49;9.00;99.90
8231;DHT22;4156;50.908;6.974;2023-03-12T17:11:20;9.00;99.90
8231;DHT22;4156;50.908;6.974;2023-03-12T17:13:51;9.10;99.90
8231;DHT22;4156;50.908;6.974;2023-03-12T17:16:17;9.10;99.90
8231;DHT22;4156;50.908;6.974;2023-03-12T17:18:43;9.10;99.90
8231;DHT22;4156;50.908;6.974;2023-03-12T17:21:13;9.10;99.90
8231;DHT22;4156;50.908;6.974;2023-03-12T17:23:39;9.10;99.90
8231;DHT22;4156;50.908;6.974;2023-03-12T17:26:05;9.10;99.90
8231;DHT22;4156;50.908;6.974;2023-03-12T17:28:31;9.20;99.90
8231;DHT22;4156;50.908;6.974;2023-03-12T17:30:57;9.20;99.90
8231;DHT22;4156;50.908;6.974;2023-03-12T17:33:22;9.20;99.90
8231;DHT22;4156;50.908;6.974;2023-03-12T17:36:04;9.20;99.90
8231;DHT22;4156;50.908;6.974;2023-03-12T17:38:31;9.30;99.90
8231;DHT22;4156;50.908;6.974;2023-03-12T17:40:58;9.30;99.90
8231;DHT22;4156;50.908;6.974;2023-03-12T17:43:24;9.30;99.90
8231;DHT22;4156;50.908;6.974;2023-03-12T17:45:50;9.30;99.90
8231;DHT22;4156;50.908;6.974;2023-03-12T17:48:16;9.30;99.90
8231;DHT22;4156;50.908;6.974;2023-03-12T17:50:42;9.40;99.90
8231;DHT22;4156;50.908;6.974;2023-03-12T17:53:08;9.30;99.90
8231;DHT22;4156;50.908;6.974;2023-03-12T17:55:34;9.40;99.90